createdAt,value
2023-08-09T08:31:16.822Z,99258.36
2023-08-09T08:41:22.692Z,99270.73
2023-08-09T08:51:30.555Z,99269.74
2023-08-09T09:01:36.771Z,99266.11
2023-08-09T09:11:42.569Z,99258.23
2023-08-09T09:21:48.225Z,99260.80
2023-08-09T09:31:53.947Z,99255.32
2023-08-09T09:41:59.871Z,99254.86
2023-08-09T09:52:07.368Z,99251.90
2023-08-09T10:02:14.120Z,99241.71
2023-08-09T10:12:20.236Z,99234.58
2023-08-09T10:22:28.728Z,99230.36
2023-08-09T10:43:10.507Z,99240.53
2023-08-09T10:53:23.407Z,99260.80
2023-08-09T11:03:29.173Z,99264.81
2023-08-09T11:13:44.611Z,99267.26
2023-08-09T11:24:01.817Z,99275.94
2023-08-09T11:34:08.320Z,99289.42
2023-08-09T11:44:16.792Z,99297.79
2023-08-09T11:54:23.124Z,99307.21
2023-08-09T12:04:30.832Z,99314.79
2023-08-09T12:14:38.507Z,99319.40
2023-08-09T12:24:44.356Z,99324.36
2023-08-09T12:34:51.481Z,99327.02
2023-08-09T12:44:57.294Z,99332.58
2023-08-09T12:55:03.130Z,99337.04
2023-08-09T13:05:10.756Z,99344.30
2023-08-09T13:15:16.485Z,99335.95
2023-08-09T13:25:23.112Z,99332.11
2023-08-09T13:35:28.943Z,99329.08
2023-08-09T13:45:34.654Z,99337.27
2023-08-09T13:55:40.652Z,99346.73
2023-08-09T14:05:46.646Z,99348.63
2023-08-09T14:15:52.772Z,99351.23
2023-08-09T14:25:58.635Z,99354.60
2023-08-09T14:36:04.757Z,99353.23
2023-08-09T14:46:10.668Z,99353.24
2023-08-09T14:56:16.430Z,99354.46
2023-08-09T15:06:24.047Z,99365.52
2023-08-09T15:16:30.101Z,99363.60
2023-08-09T15:26:35.704Z,99370.37
2023-08-09T15:36:41.612Z,99381.19
2023-08-09T15:46:47.380Z,99396.66
2023-08-09T15:56:53.322Z,99410.25
2023-08-09T16:06:59.625Z,99412.11
2023-08-09T16:17:05.943Z,99421.13
2023-08-09T16:27:11.864Z,99422.26
2023-08-09T16:37:17.559Z,99424.02
2023-08-09T16:47:23.371Z,99431.30
2023-08-09T16:57:30.761Z,99441.98
2023-08-09T17:07:38.286Z,99448.95
2023-08-09T17:17:44.013Z,99455.13
2023-08-09T17:27:49.837Z,99456.29
2023-08-09T17:37:55.970Z,99462.00
2023-08-09T17:48:01.862Z,99471.55
2023-08-09T17:58:07.747Z,99485.61
2023-08-09T18:08:13.709Z,99491.16
2023-08-09T18:18:19.407Z,99507.14
2023-08-09T18:28:25.458Z,99518.44
2023-08-09T18:38:31.128Z,99536.48
2023-08-09T18:48:36.820Z,99563.84
2023-08-09T18:58:42.514Z,99569.58
2023-08-09T19:08:48.781Z,99576.48
2023-08-09T19:18:54.827Z,99595.20
2023-08-09T19:29:00.518Z,99593.96
2023-08-09T19:39:06.876Z,99606.48
2023-08-09T19:49:12.646Z,99611.30
2023-08-09T19:59:18.663Z,99613.16
2023-08-09T20:09:24.789Z,99624.27
2023-08-09T20:19:31.873Z,99630.25
2023-08-09T20:29:38.119Z,99637.89
2023-08-09T20:39:44.014Z,99651.77
2023-08-09T20:49:50.265Z,99657.15
2023-08-09T20:59:56.045Z,99654.82
2023-08-09T21:10:01.778Z,99669.06
2023-08-09T21:20:11.309Z,99672.27
2023-08-09T21:30:17.705Z,99680.54
2023-08-09T21:40:23.743Z,99690.15
2023-08-09T21:50:29.425Z,99693.57
2023-08-09T22:00:35.341Z,99698.39
2023-08-09T22:10:41.547Z,99697.21
2023-08-09T22:20:48.334Z,99702.39
2023-08-09T22:30:54.121Z,99712.95
2023-08-09T22:40:59.934Z,99718.32
2023-08-09T22:51:06.018Z,99722.90
2023-08-09T23:01:12.284Z,99726.46
2023-08-09T23:11:18.161Z,99731.48
2023-08-09T23:21:23.793Z,99739.59
2023-08-09T23:31:29.591Z,99748.05
2023-08-09T23:41:35.575Z,99746.32
2023-08-09T23:51:41.286Z,99749.13
